La Joya, Texas
Current Conditions -  °F | °C
As of 3:53 AM on Sunday 21 Dec 2014 (Local Time) from KMFE Reporting Station
Haze Haze  
Wind Chill: 55°   Ceiling: 1000
Heat Index: 55°   Visibility: 4mi
Dew Point: 53°   Wind: 7mph
Humidity: 93%   Direction: 350°N
Pressure: 30.09"   Gusts: NA
Location:  26.25°N, 98.48°W
Report Text: KMFE 210953Z AUTO 35006KT 4SM BR OVC010 13/12 A3009 RMK AO2 RAB10E27 CIG 005V012 SLP189 P0000 T01280117
Loading
Personal Weather Stations






























Interactive Weather Map New forecast layout! Learn more

10-Day Weather Forecast

Advertisements
Track Severe Weather on mobile